Terminal Aerodrome Forecast
Issued by NWS

Home | Current Version | Previous Version | Text Only | Print | Product List | Glossary Off
Versions: 1 2 3 4 5 6 7 8 9 10 11 12 13 14 15 16 17 18

000
FTUS43 KOAX 261755 CCA
TAFCDR
TAF COR
KCDR 261755Z 2618/2718 12012KT P6SM FEW250
     FM262100 29010KT P6SM VCTS SCT050CB BKN200
     FM270300 04012KT P6SM BKN120
     FM271000 02006KT P6SM SCT150=

USA.gov is the U.S. government's official web portal to all federal, state and local government web resources and services.